Fontana, CA

12:56 PM PDT en Agosto 26, 2016 (GMT -0700)
Tokay Manor | | Change Station

Alt 1319 ft 34.11 °N, 117.46 °W | Updated 11 minutes ago

Partly Cloudy
Parcialmente nublado
71.8 ° F
Sensación térmica 77 ° F
N
8.3
Viento Variable Viento desde Sur
Gusts 12.1 mph

Hoy
Alta -- | Baja -- ° F
--% Posibilidad de precipitaciones
Ayer
Alta -- | Baja -- ° F
Precip. -- pul
Presión 29.93 pul
Visibilidad 10.0 Millas
Nubes Baja 10000 ft
Índice de calor 77 ° F
Punto de rocío 42 ° F
Humedad 34%
Precipitaciones 0.00 pul
Espesor de la nieve No disponible.
6:19 AM 7:22 PM
Creciente menguante, 32% visible
METAR KONT 261953Z 22006KT 10SM FEW100 26/13 A2996 RMK AO2 SLP133 T02560133
Presión 29.93 pul
Visibilidad 10.0 Millas
Nubes Baja 10000 ft
Índice de calor 77 ° F
Punto de rocío 42 ° F
Humedad 34%
Precipitaciones 0.00 pul
Espesor de la nieve No disponible.
6:19 AM 7:22 PM
Creciente menguante, 32% visible
METAR KONT 261953Z 22006KT 10SM FEW100 26/13 A2996 RMK AO2 SLP133 T02560133

10-Day Weather Forecast

Almanac

Astronomía

Aug. 26, 2016 Salida Puesta
Hora real
Crepúsculo civil
Crepúsculo náutico
Crepúsculo astronómico
Luna
Horas de luz
Horas de luz
Tomorrow will be .
, % of the Moon is Illuminated

Extremos de hoy

Máximos del estado Bajos del estado

Community

WunderPhotos

Upload Photos

1,935,195 ¡fotos cargadas!

WunderBlog® & News

Nearby

Calidad del aire

  Calidad del aire Índice AQ Contaminante
Not available.

Grosos de nieve

Estación Profundido Altura

Actividad de terremotos

Ciudad Distance Mag. Tiempo y dato
Magnitud mínima muestra es 2,5.

Temperaturas de aguas costeras

Lugar Temperatura

Stations

Estaciones meteorológicas cercanas

Ubicación de la estación Temp. Vientos helados Punto de rocío Humedad Viento Precip. Alt Actualizado Tipo
                   

Watches & Warnings

There are currently no watches in effect.